You are not logged in, Click here to log in
三亞鳳凰國際機場 / ZJSY 中華人民共和國海南省三亚市凤凰镇
ICAO: ZJSY Country: 中華人民共和國海南省三亚市凤凰镇
Latitude: 18.3037 Longitude: 109.413
Total Arrivals: 5 Total Departures: 6
Latest Arrival: FS23 (ZGSZ-ZJSY)CHU. CHUHAO Latest Departure: H9Z322 (ZJSY-ZGSZ)CHU. CHUHAO
Scenery:
METAR : ZJSY 092100Z VRB01MPS CAVOK 15/13 Q1017 NOSIG

三亞鳳凰國際機場

You are accessing this site from IP address 35.170.81.210. Virtual Airline. CMS by phpVMS.Website designed by Zumeweb and edited by Theo Bearman.
There is 0 User(s) Online: | and 6 Guest(s) Online.
All information on this site is for fight simulation purposes only. This site is for flight logging for pilots of Virtual Airline&模擬飛行論壇 FlySim only.